KSVC/SVC METAR and TAF weather

Enter ICAO airport designator
Station Type Date Time Source
KSVC METAR 2021/05/11 00:35 UTC NOAA

KSVC 110035Z AUTO 25014G18KT 10SM CLR 26/M05 A2995 RMK AO2 T02571051


Station Type Date Time Source
KSVC Decoded METAR 2021/05/11 00:35 UTC NOAA

Silver City / Grant, NM, United States (KSVC) 32-38N 108-09W
May 10, 2021 - 08:35 PM EDT / 2021.05.11 0035 UTC
Wind: from the WSW (250 degrees) at 16 MPH (14 KT) gusting to 21 MPH (18 KT):0
Visibility: 10 mile(s):0
Sky conditions: clear
Temperature: 78.3 F (25.7 C)
Dew Point: 22.8 F (-5.1 C)
Relative Humidity: 12%
Pressure (altimeter): 29.95 in. Hg (1014 hPa)
ob: KSVC 110035Z AUTO 25014G18KT 10SM CLR 26/M05 A2995 RMK AO2 T02571051
cycle: 0

Station Type Date Time Source
KSVC TAF UTC NOAA

Error!

Example: see airport list